Česky Dansk Deutsch English Español Suomi Français Magyar Italiano Nederlands norsk Polski Português svenska Türkçe

 

Het Weer

Maradi (Niger)

18:00, 21 augustus 2016 (GMT)

 
WE
 
Home            
Maradi Gusau Birni-N'Konni Sokoto Zinder Kano Tahoua Zaria Kaduna Goure Agadez Gaya Jos Bida Kandi Maine-Soroa Niamey-Aero Menaka Tillabery Diffa Ilorin Makurdi Parakou

Om een weerknop op uw website of weblog te plaatsen, copieer onderstaande code en plak die in uw pagina. In het eerste vakje staat HTML-code, in het tweede vakje UBB-code.


Add to Google

Details

Wind speed:2 bf, 6 kn, 3.1 m/s, 6.9 miles/h, 11.1 km/h
Wind direction:W, 260°
Visibility:Greater than 10000 m, 10 km, 32800 ft, 6.2 miles
Clouds:Ein wenig bewölkt at 3300 ft, 1006 m
Temperature:32°C, 90°F
Gefühlte Temperatur:40°C, 104°F
Dew-point:25°C, 77°F
Atmospheric pressure:1011 hPa, 758.3 mmHg, 29.85 inHg, 0.998 atm
Relative humidity:66.6 %
METAR:DRRM 211800Z 26006KT 9999 FEW033CB 32/25 Q1011

Snelkoppelingen

Actuele weersinformatie van de hele wereld. Voeg locaties toe met het plus (+) symbool. Deze snelkoppelingen kunnen worden toegevoegd aan Google.

Lid van de Technetium groep

website free tracking
StatCounter NetStat W3C Validator

03-10-2022 12:06:41
astro.technetium.be money.technetium.be phote.technetium.be tafeltennistafel.technetium.be www.ligfiets.net